sensor_id;sensor_type;location;lat;lon;timestamp;temperature;humidity
39881;DHT22;25554;44.954;10.068;2022-08-11T00:01:20;22.60;91.90
39881;DHT22;25554;44.954;10.068;2022-08-11T00:03:49;22.60;92.30
39881;DHT22;25554;44.954;10.068;2022-08-11T00:06:30;22.50;92.50
39881;DHT22;25554;44.954;10.068;2022-08-11T00:08:58;22.50;92.70
39881;DHT22;25554;44.954;10.068;2022-08-11T00:11:40;23.20;93.80
39881;DHT22;25554;44.954;10.068;2022-08-11T00:16:57;23.10;95.90
39881;DHT22;25554;44.954;10.068;2022-08-11T00:19:26;22.40;93.60
39881;DHT22;25554;44.954;10.068;2022-08-11T00:24:21;22.30;93.90
39881;DHT22;25554;44.954;10.068;2022-08-11T00:26:51;22.30;94.20
39881;DHT22;25554;44.954;10.068;2022-08-11T00:29:18;22.10;94.40
39881;DHT22;25554;44.954;10.068;2022-08-11T00:31:57;22.20;94.60
39881;DHT22;25554;44.954;10.068;2022-08-11T00:34:29;22.20;94.90
39881;DHT22;25554;44.954;10.068;2022-08-11T00:47:38;22.00;95.80
39881;DHT22;25554;44.954;10.068;2022-08-11T01:02:13;21.90;96.50
39881;DHT22;25554;44.954;10.068;2022-08-11T01:05:05;21.90;96.60
39881;DHT22;25554;44.954;10.068;2022-08-11T01:12:39;21.90;96.90
39881;DHT22;25554;44.954;10.068;2022-08-11T01:46:21;22.00;99.90
39881;DHT22;25554;44.954;10.068;2022-08-11T01:49:27;21.70;98.90
39881;DHT22;25554;44.954;10.068;2022-08-11T01:52:24;21.70;99.00
39881;DHT22;25554;44.954;10.068;2022-08-11T02:00:23;21.70;99.10
39881;DHT22;25554;44.954;10.068;2022-08-11T02:03:00;21.60;99.40
39881;DHT22;25554;44.954;10.068;2022-08-11T02:08:48;21.60;99.70
39881;DHT22;25554;44.954;10.068;2022-08-11T02:11:28;21.60;99.90
39881;DHT22;25554;44.954;10.068;2022-08-11T02:25:08;21.50;99.90
39881;DHT22;25554;44.954;10.068;2022-08-11T02:30:04;21.50;99.90
39881;DHT22;25554;44.954;10.068;2022-08-11T02:32:57;21.10;99.90
39881;DHT22;25554;44.954;10.068;2022-08-11T02:36:05;21.50;99.90
39881;DHT22;25554;44.954;10.068;2022-08-11T02:43:40;21.60;99.90
39881;DHT22;25554;44.954;10.068;2022-08-11T02:46:35;21.50;99.90
39881;DHT22;25554;44.954;10.068;2022-08-11T02:52:01;21.40;99.90
39881;DHT22;25554;44.954;10.068;2022-08-11T02:54:45;21.30;99.90
39881;DHT22;25554;44.954;10.068;2022-08-11T02:57:22;21.30;99.90
39881;DHT22;25554;44.954;10.068;2022-08-11T03:00:08;21.30;99.90
39881;DHT22;25554;44.954;10.068;2022-08-11T03:13:30;21.20;99.90
39881;DHT22;25554;44.954;10.068;2022-08-11T03:16:40;21.20;99.90
39881;DHT22;25554;44.954;10.068;2022-08-11T03:25:14;21.10;99.90
39881;DHT22;25554;44.954;10.068;2022-08-11T03:30:28;21.10;99.90
39881;DHT22;25554;44.954;10.068;2022-08-11T03:33:14;21.10;99.90
39881;DHT22;25554;44.954;10.068;2022-08-11T03:47:25;21.30;99.90
39881;DHT22;25554;44.954;10.068;2022-08-11T03:50:26;21.20;99.90
39881;DHT22;25554;44.954;10.068;2022-08-11T03:56:22;21.20;99.90
39881;DHT22;25554;44.954;10.068;2022-08-11T04:34:43;20.70;99.90
39881;DHT22;25554;44.954;10.068;2022-08-11T04:54:19;20.80;99.90
39881;DHT22;25554;44.954;10.068;2022-08-11T04:57:18;20.90;99.90
39881;DHT22;25554;44.954;10.068;2022-08-11T05:00:09;20.90;99.90
39881;DHT22;25554;44.954;10.068;2022-08-11T05:11:42;21.30;99.90
39881;DHT22;25554;44.954;10.068;2022-08-11T05:17:03;21.40;99.90
39881;DHT22;25554;44.954;10.068;2022-08-11T05:22:37;21.70;99.90
39881;DHT22;25554;44.954;10.068;2022-08-11T05:25:29;21.70;99.90
39881;DHT22;25554;44.954;10.068;2022-08-11T05:28:30;21.70;99.90
39881;DHT22;25554;44.954;10.068;2022-08-11T05:31:18;21.80;99.90
39881;DHT22;25554;44.954;10.068;2022-08-11T05:34:16;21.80;99.90
39881;DHT22;25554;44.954;10.068;2022-08-11T05:37:13;21.90;99.90
39881;DHT22;25554;44.954;10.068;2022-08-11T05:39:49;21.90;99.90
39881;DHT22;25554;44.954;10.068;2022-08-11T05:42:41;22.10;99.90
39881;DHT22;25554;44.954;10.068;2022-08-11T05:45:27;22.30;99.90
39881;DHT22;25554;44.954;10.068;2022-08-11T05:48:13;22.30;99.90
39881;DHT22;25554;44.954;10.068;2022-08-11T05:51:00;22.60;99.90
39881;DHT22;25554;44.954;10.068;2022-08-11T05:53:55;22.80;99.90
39881;DHT22;25554;44.954;10.068;2022-08-11T05:56:43;23.10;99.90
39881;DHT22;25554;44.954;10.068;2022-08-11T05:59:13;23.20;99.90
39881;DHT22;25554;44.954;10.068;2022-08-11T06:01:42;23.30;99.90
39881;DHT22;25554;44.954;10.068;2022-08-11T06:06:50;23.60;99.90
39881;DHT22;25554;44.954;10.068;2022-08-11T06:09:28;23.70;99.90
39881;DHT22;25554;44.954;10.068;2022-08-11T06:11:59;23.80;99.90
39881;DHT22;25554;44.954;10.068;2022-08-11T06:16:57;23.90;99.90
39881;DHT22;25554;44.954;10.068;2022-08-11T06:19:37;24.10;99.90
39881;DHT22;25554;44.954;10.068;2022-08-11T06:22:08;24.40;99.90
39881;DHT22;25554;44.954;10.068;2022-08-11T06:24:38;24.70;99.90
39881;DHT22;25554;44.954;10.068;2022-08-11T06:27:06;24.90;99.90
39881;DHT22;25554;44.954;10.068;2022-08-11T06:29:35;25.10;99.90
39881;DHT22;25554;44.954;10.068;2022-08-11T06:32:11;25.30;99.90
39881;DHT22;25554;44.954;10.068;2022-08-11T06:35:45;25.50;99.90
39881;DHT22;25554;44.954;10.068;2022-08-11T06:38:14;25.60;99.90
39881;DHT22;25554;44.954;10.068;2022-08-11T06:40:50;25.70;99.90
39881;DHT22;25554;44.954;10.068;2022-08-11T06:47:23;26.20;99.90
39881;DHT22;25554;44.954;10.068;2022-08-11T06:49:33;26.50;99.90
39881;DHT22;25554;44.954;10.068;2022-08-11T06:54:50;28.70;98.00
39881;DHT22;25554;44.954;10.068;2022-08-11T07:00:08;29.90;96.50
39881;DHT22;25554;44.954;10.068;2022-08-11T07:03:05;28.80;96.40
39881;DHT22;25554;44.954;10.068;2022-08-11T07:13:50;27.20;94.20
39881;DHT22;25554;44.954;10.068;2022-08-11T07:16:38;30.50;94.70
39881;DHT22;25554;44.954;10.068;2022-08-11T07:19:07;30.40;94.40
39881;DHT22;25554;44.954;10.068;2022-08-11T07:21:55;30.00;94.50
39881;DHT22;25554;44.954;10.068;2022-08-11T07:24:48;29.70;94.90
39881;DHT22;25554;44.954;10.068;2022-08-11T07:27:41;29.30;95.00
39881;DHT22;25554;44.954;10.068;2022-08-11T07:30:28;28.80;95.60
39881;DHT22;25554;44.954;10.068;2022-08-11T07:32:58;28.60;95.80
39881;DHT22;25554;44.954;10.068;2022-08-11T07:36:11;28.30;96.50
39881;DHT22;25554;44.954;10.068;2022-08-11T07:38:36;28.80;96.10
39881;DHT22;25554;44.954;10.068;2022-08-11T07:41:19;29.60;95.40
39881;DHT22;25554;44.954;10.068;2022-08-11T07:43:51;28.30;94.00
39881;DHT22;25554;44.954;10.068;2022-08-11T07:46:20;30.70;94.20
39881;DHT22;25554;44.954;10.068;2022-08-11T07:49:07;32.20;98.30
39881;DHT22;25554;44.954;10.068;2022-08-11T07:51:53;33.00;92.70
39881;DHT22;25554;44.954;10.068;2022-08-11T07:54:40;34.40;91.20
39881;DHT22;25554;44.954;10.068;2022-08-11T07:57:10;36.10;89.00
39881;DHT22;25554;44.954;10.068;2022-08-11T07:59:56;36.20;87.00
39881;DHT22;25554;44.954;10.068;2022-08-11T08:03:12;34.70;87.50
39881;DHT22;25554;44.954;10.068;2022-08-11T08:18:20;29.60;91.50
39881;DHT22;25554;44.954;10.068;2022-08-11T08:21:07;29.60;91.90
39881;DHT22;25554;44.954;10.068;2022-08-11T08:23:47;29.40;91.90
39881;DHT22;25554;44.954;10.068;2022-08-11T08:26:15;29.20;92.00
39881;DHT22;25554;44.954;10.068;2022-08-11T08:29:02;29.30;92.20
39881;DHT22;25554;44.954;10.068;2022-08-11T08:31:47;29.30;92.40
39881;DHT22;25554;44.954;10.068;2022-08-11T08:34:14;29.40;92.20
39881;DHT22;25554;44.954;10.068;2022-08-11T08:36:43;29.50;91.90
39881;DHT22;25554;44.954;10.068;2022-08-11T08:39:11;29.40;92.00
39881;DHT22;25554;44.954;10.068;2022-08-11T08:44:10;29.30;92.10
39881;DHT22;25554;44.954;10.068;2022-08-11T08:46:43;29.40;91.80
39881;DHT22;25554;44.954;10.068;2022-08-11T08:49:17;29.40;91.40
39881;DHT22;25554;44.954;10.068;2022-08-11T08:51:44;29.40;91.30
39881;DHT22;25554;44.954;10.068;2022-08-11T08:54:24;29.40;91.10
39881;DHT22;25554;44.954;10.068;2022-08-11T08:56:54;29.40;91.40
39881;DHT22;25554;44.954;10.068;2022-08-11T08:59:24;29.50;88.40
39881;DHT22;25554;44.954;10.068;2022-08-11T09:02:00;29.50;86.30
39881;DHT22;25554;44.954;10.068;2022-08-11T09:04:28;29.60;89.10
39881;DHT22;25554;44.954;10.068;2022-08-11T09:06:57;29.60;84.70
39881;DHT22;25554;44.954;10.068;2022-08-11T09:09:25;29.50;84.80
39881;DHT22;25554;44.954;10.068;2022-08-11T09:19:16;30.20;84.50
39881;DHT22;25554;44.954;10.068;2022-08-11T09:21:46;30.20;83.80
39881;DHT22;25554;44.954;10.068;2022-08-11T09:24:35;30.00;84.70
39881;DHT22;25554;44.954;10.068;2022-08-11T09:27:22;29.90;84.70
39881;DHT22;25554;44.954;10.068;2022-08-11T09:29:49;30.00;84.60
39881;DHT22;25554;44.954;10.068;2022-08-11T09:32:20;30.20;84.70
39881;DHT22;25554;44.954;10.068;2022-08-11T09:34:48;30.30;84.30
39881;DHT22;25554;44.954;10.068;2022-08-11T09:37:17;30.40;83.70
39881;DHT22;25554;44.954;10.068;2022-08-11T09:40:06;30.40;83.90
39881;DHT22;25554;44.954;10.068;2022-08-11T09:48:04;30.60;82.70
39881;DHT22;25554;44.954;10.068;2022-08-11T09:50:33;30.60;82.40
39881;DHT22;25554;44.954;10.068;2022-08-11T09:55:32;30.60;82.20
39881;DHT22;25554;44.954;10.068;2022-08-11T09:57:59;30.80;82.40
39881;DHT22;25554;44.954;10.068;2022-08-11T10:00:38;30.90;81.60
39881;DHT22;25554;44.954;10.068;2022-08-11T10:03:15;31.00;82.00
39881;DHT22;25554;44.954;10.068;2022-08-11T10:05:46;31.10;82.60
39881;DHT22;25554;44.954;10.068;2022-08-11T10:08:32;31.80;82.40
39881;DHT22;25554;44.954;10.068;2022-08-11T10:13:32;31.30;80.00
39881;DHT22;25554;44.954;10.068;2022-08-11T10:16:02;31.50;80.70
39881;DHT22;25554;44.954;10.068;2022-08-11T10:18:34;31.60;81.00
39881;DHT22;25554;44.954;10.068;2022-08-11T10:21:14;31.60;79.00
39881;DHT22;25554;44.954;10.068;2022-08-11T10:23:43;31.70;79.50
39881;DHT22;25554;44.954;10.068;2022-08-11T10:26:29;31.80;79.30
39881;DHT22;25554;44.954;10.068;2022-08-11T10:29:15;31.90;77.70
39881;DHT22;25554;44.954;10.068;2022-08-11T10:32:02;31.80;77.00
39881;DHT22;25554;44.954;10.068;2022-08-11T10:34:49;31.80;77.50
39881;DHT22;25554;44.954;10.068;2022-08-11T10:37:17;31.80;77.20
39881;DHT22;25554;44.954;10.068;2022-08-11T10:39:45;31.80;77.10
39881;DHT22;25554;44.954;10.068;2022-08-11T10:42:13;31.60;76.40
39881;DHT22;25554;44.954;10.068;2022-08-11T10:44:59;31.10;77.60
39881;DHT22;25554;44.954;10.068;2022-08-11T10:50:07;31.50;77.60
39881;DHT22;25554;44.954;10.068;2022-08-11T10:52:52;31.60;78.00
39881;DHT22;25554;44.954;10.068;2022-08-11T10:55:38;31.90;78.40
39881;DHT22;25554;44.954;10.068;2022-08-11T10:58:26;32.10;77.30
39881;DHT22;25554;44.954;10.068;2022-08-11T11:03:39;31.90;77.10
39881;DHT22;25554;44.954;10.068;2022-08-11T11:08:41;31.10;86.60
39881;DHT22;25554;44.954;10.068;2022-08-11T11:11:23;32.00;77.30
39881;DHT22;25554;44.954;10.068;2022-08-11T11:14:11;32.00;74.90
39881;DHT22;25554;44.954;10.068;2022-08-11T11:16:59;32.20;74.20
39881;DHT22;25554;44.954;10.068;2022-08-11T11:19:45;32.00;76.30
39881;DHT22;25554;44.954;10.068;2022-08-11T11:22:13;32.20;76.80
39881;DHT22;25554;44.954;10.068;2022-08-11T11:25:13;32.30;76.80
39881;DHT22;25554;44.954;10.068;2022-08-11T11:33:09;31.70;84.60
39881;DHT22;25554;44.954;10.068;2022-08-11T11:35:48;32.10;75.20
39881;DHT22;25554;44.954;10.068;2022-08-11T11:43:32;32.00;75.80
39881;DHT22;25554;44.954;10.068;2022-08-11T11:46:01;29.00;74.30
39881;DHT22;25554;44.954;10.068;2022-08-11T11:48:29;32.50;74.10
39881;DHT22;25554;44.954;10.068;2022-08-11T12:03:43;32.00;74.10
39881;DHT22;25554;44.954;10.068;2022-08-11T12:06:11;32.10;75.30
39881;DHT22;25554;44.954;10.068;2022-08-11T12:08:39;32.20;75.50
39881;DHT22;25554;44.954;10.068;2022-08-11T12:11:10;32.30;75.80
39881;DHT22;25554;44.954;10.068;2022-08-11T12:13:58;32.40;75.50
39881;DHT22;25554;44.954;10.068;2022-08-11T12:16:25;32.30;75.10
39881;DHT22;25554;44.954;10.068;2022-08-11T12:18:57;32.50;73.60
39881;DHT22;25554;44.954;10.068;2022-08-11T12:21:25;32.30;73.50
39881;DHT22;25554;44.954;10.068;2022-08-11T12:23:54;32.30;73.80
39881;DHT22;25554;44.954;10.068;2022-08-11T12:29:26;31.80;77.50
39881;DHT22;25554;44.954;10.068;2022-08-11T12:31:54;32.30;73.10
39881;DHT22;25554;44.954;10.068;2022-08-11T12:34:21;32.80;73.60
39881;DHT22;25554;44.954;10.068;2022-08-11T12:36:55;32.70;73.20
39881;DHT22;25554;44.954;10.068;2022-08-11T12:39:26;32.10;74.50
39881;DHT22;25554;44.954;10.068;2022-08-11T12:42:16;32.90;73.30
39881;DHT22;25554;44.954;10.068;2022-08-11T12:45:06;32.90;72.80
39881;DHT22;25554;44.954;10.068;2022-08-11T12:50:52;32.70;71.20
39881;DHT22;25554;44.954;10.068;2022-08-11T12:53:44;32.40;71.00
39881;DHT22;25554;44.954;10.068;2022-08-11T12:58:57;32.00;71.20
39881;DHT22;25554;44.954;10.068;2022-08-11T13:07:14;32.40;71.30
39881;DHT22;25554;44.954;10.068;2022-08-11T13:09:42;32.60;71.10
39881;DHT22;25554;44.954;10.068;2022-08-11T13:14:55;32.70;69.40
39881;DHT22;25554;44.954;10.068;2022-08-11T13:19:48;33.00;70.00
39881;DHT22;25554;44.954;10.068;2022-08-11T13:22:17;32.90;71.20
39881;DHT22;25554;44.954;10.068;2022-08-11T13:29:40;32.80;69.50
39881;DHT22;25554;44.954;10.068;2022-08-11T13:34:34;33.00;69.40
39881;DHT22;25554;44.954;10.068;2022-08-11T13:37:07;33.10;69.70
39881;DHT22;25554;44.954;10.068;2022-08-11T13:39:36;33.10;68.40
39881;DHT22;25554;44.954;10.068;2022-08-11T13:42:03;33.10;68.60
39881;DHT22;25554;44.954;10.068;2022-08-11T13:44:33;33.00;68.70
39881;DHT22;25554;44.954;10.068;2022-08-11T13:47:05;32.70;75.20
39881;DHT22;25554;44.954;10.068;2022-08-11T13:49:35;33.20;69.70
39881;DHT22;25554;44.954;10.068;2022-08-11T13:52:02;33.30;69.30
39881;DHT22;25554;44.954;10.068;2022-08-11T13:54:31;33.30;69.00
39881;DHT22;25554;44.954;10.068;2022-08-11T13:57:05;33.10;69.20
39881;DHT22;25554;44.954;10.068;2022-08-11T14:02:03;33.20;68.90
39881;DHT22;25554;44.954;10.068;2022-08-11T14:07:09;33.40;69.40
39881;DHT22;25554;44.954;10.068;2022-08-11T14:09:38;33.90;68.80
39881;DHT22;25554;44.954;10.068;2022-08-11T14:12:13;33.40;68.20
39881;DHT22;25554;44.954;10.068;2022-08-11T14:15:01;33.10;68.80
39881;DHT22;25554;44.954;10.068;2022-08-11T14:17:32;32.80;69.10
39881;DHT22;25554;44.954;10.068;2022-08-11T14:20:03;33.10;69.60
39881;DHT22;25554;44.954;10.068;2022-08-11T14:22:31;33.30;69.50
39881;DHT22;25554;44.954;10.068;2022-08-11T14:24:58;33.40;69.70
39881;DHT22;25554;44.954;10.068;2022-08-11T14:29:56;33.70;78.50
39881;DHT22;25554;44.954;10.068;2022-08-11T14:32:24;33.60;69.00
39881;DHT22;25554;44.954;10.068;2022-08-11T14:34:52;33.60;68.90
39881;DHT22;25554;44.954;10.068;2022-08-11T14:37:20;33.70;68.40
39881;DHT22;25554;44.954;10.068;2022-08-11T14:39:52;33.60;68.20
39881;DHT22;25554;44.954;10.068;2022-08-11T14:42:20;33.80;68.10
39881;DHT22;25554;44.954;10.068;2022-08-11T14:45:08;33.70;68.50
39881;DHT22;25554;44.954;10.068;2022-08-11T14:47:59;33.70;68.60
39881;DHT22;25554;44.954;10.068;2022-08-11T14:50:27;33.60;68.40
39881;DHT22;25554;44.954;10.068;2022-08-11T14:55:28;33.50;69.10
39881;DHT22;25554;44.954;10.068;2022-08-11T14:58:16;33.60;68.80
39881;DHT22;25554;44.954;10.068;2022-08-11T15:00:44;34.80;69.60
39881;DHT22;25554;44.954;10.068;2022-08-11T15:03:12;33.70;69.40
39881;DHT22;25554;44.954;10.068;2022-08-11T15:05:58;34.00;70.20
39881;DHT22;25554;44.954;10.068;2022-08-11T15:08:32;33.80;69.00
39881;DHT22;25554;44.954;10.068;2022-08-11T15:11:19;34.00;69.20
39881;DHT22;25554;44.954;10.068;2022-08-11T15:14:07;33.90;68.30
39881;DHT22;25554;44.954;10.068;2022-08-11T15:16:36;34.10;68.60
39881;DHT22;25554;44.954;10.068;2022-08-11T15:19:22;34.10;68.30
39881;DHT22;25554;44.954;10.068;2022-08-11T15:27:10;34.10;68.40
39881;DHT22;25554;44.954;10.068;2022-08-11T15:29:57;34.20;68.50
39881;DHT22;25554;44.954;10.068;2022-08-11T15:32:44;34.20;68.50
39881;DHT22;25554;44.954;10.068;2022-08-11T15:35:30;34.20;68.20
39881;DHT22;25554;44.954;10.068;2022-08-11T15:38:17;34.30;67.70
39881;DHT22;25554;44.954;10.068;2022-08-11T15:43:51;34.10;68.30
39881;DHT22;25554;44.954;10.068;2022-08-11T15:46:44;34.10;68.10
39881;DHT22;25554;44.954;10.068;2022-08-11T15:49:14;34.10;68.80
39881;DHT22;25554;44.954;10.068;2022-08-11T15:54:30;34.20;68.60
39881;DHT22;25554;44.954;10.068;2022-08-11T15:56:59;34.20;68.20
39881;DHT22;25554;44.954;10.068;2022-08-11T15:59:33;34.20;68.20
39881;DHT22;25554;44.954;10.068;2022-08-11T16:02:21;34.20;68.30
39881;DHT22;25554;44.954;10.068;2022-08-11T16:04:54;34.10;68.30
39881;DHT22;25554;44.954;10.068;2022-08-11T16:07:31;34.10;68.00
39881;DHT22;25554;44.954;10.068;2022-08-11T16:10:26;34.00;68.50
39881;DHT22;25554;44.954;10.068;2022-08-11T16:13:05;34.00;67.90
39881;DHT22;25554;44.954;10.068;2022-08-11T16:15:44;30.60;65.70
39881;DHT22;25554;44.954;10.068;2022-08-11T16:18:38;34.00;68.30
39881;DHT22;25554;44.954;10.068;2022-08-11T16:21:15;34.10;68.10
39881;DHT22;25554;44.954;10.068;2022-08-11T16:23:45;34.10;68.00
39881;DHT22;25554;44.954;10.068;2022-08-11T16:26:13;34.00;67.90
39881;DHT22;25554;44.954;10.068;2022-08-11T16:28:42;33.80;68.10
39881;DHT22;25554;44.954;10.068;2022-08-11T16:31:09;33.70;68.60
39881;DHT22;25554;44.954;10.068;2022-08-11T16:33:41;33.60;68.50
39881;DHT22;25554;44.954;10.068;2022-08-11T16:36:09;33.60;68.20
39881;DHT22;25554;44.954;10.068;2022-08-11T16:38:54;33.60;68.60
39881;DHT22;25554;44.954;10.068;2022-08-11T16:41:22;33.70;68.60
39881;DHT22;25554;44.954;10.068;2022-08-11T16:44:09;33.70;68.20
39881;DHT22;25554;44.954;10.068;2022-08-11T16:46:57;33.60;68.90
39881;DHT22;25554;44.954;10.068;2022-08-11T16:56:49;33.10;68.30
39881;DHT22;25554;44.954;10.068;2022-08-11T16:59:32;33.10;68.40
39881;DHT22;25554;44.954;10.068;2022-08-11T17:02:03;33.00;68.90
39881;DHT22;25554;44.954;10.068;2022-08-11T17:04:50;32.90;68.70
39881;DHT22;25554;44.954;10.068;2022-08-11T17:07:38;32.80;68.90
39881;DHT22;25554;44.954;10.068;2022-08-11T17:10:28;32.70;69.00
39881;DHT22;25554;44.954;10.068;2022-08-11T17:13:14;32.60;69.00
39881;DHT22;25554;44.954;10.068;2022-08-11T17:15:50;32.50;69.40
39881;DHT22;25554;44.954;10.068;2022-08-11T17:18:56;32.40;69.70
39881;DHT22;25554;44.954;10.068;2022-08-11T17:21:33;32.30;69.90
39881;DHT22;25554;44.954;10.068;2022-08-11T17:24:10;32.20;69.80
39881;DHT22;25554;44.954;10.068;2022-08-11T17:26:45;32.10;70.00
39881;DHT22;25554;44.954;10.068;2022-08-11T17:31:55;32.00;70.30
39881;DHT22;25554;44.954;10.068;2022-08-11T17:34:45;31.90;70.30
39881;DHT22;25554;44.954;10.068;2022-08-11T17:37:32;31.70;70.50
39881;DHT22;25554;44.954;10.068;2022-08-11T17:40:01;31.60;70.70
39881;DHT22;25554;44.954;10.068;2022-08-11T17:42:29;31.40;71.00
39881;DHT22;25554;44.954;10.068;2022-08-11T17:45:17;31.20;71.30
39881;DHT22;25554;44.954;10.068;2022-08-11T17:48:03;31.00;71.40
39881;DHT22;25554;44.954;10.068;2022-08-11T17:50:52;30.80;71.80
39881;DHT22;25554;44.954;10.068;2022-08-11T17:53:20;30.70;71.90
39881;DHT22;25554;44.954;10.068;2022-08-11T17:56:06;30.50;72.20
39881;DHT22;25554;44.954;10.068;2022-08-11T17:59:00;30.40;72.60
39881;DHT22;25554;44.954;10.068;2022-08-11T18:01:46;30.30;72.80
39881;DHT22;25554;44.954;10.068;2022-08-11T18:04:14;30.20;73.00
39881;DHT22;25554;44.954;10.068;2022-08-11T18:06:42;30.10;73.20
39881;DHT22;25554;44.954;10.068;2022-08-11T18:09:15;30.00;73.40
39881;DHT22;25554;44.954;10.068;2022-08-11T18:12:01;29.90;73.90
39881;DHT22;25554;44.954;10.068;2022-08-11T18:14:49;29.80;74.20
39881;DHT22;25554;44.954;10.068;2022-08-11T18:17:38;29.60;74.70
39881;DHT22;25554;44.954;10.068;2022-08-11T18:23:19;29.40;75.60
39881;DHT22;25554;44.954;10.068;2022-08-11T18:26:08;29.10;75.80
39881;DHT22;25554;44.954;10.068;2022-08-11T18:28:56;29.10;76.30
39881;DHT22;25554;44.954;10.068;2022-08-11T18:31:42;29.10;76.80
39881;DHT22;25554;44.954;10.068;2022-08-11T18:34:38;28.90;76.90
39881;DHT22;25554;44.954;10.068;2022-08-11T18:37:31;28.70;77.20
39881;DHT22;25554;44.954;10.068;2022-08-11T18:40:23;28.60;77.40
39881;DHT22;25554;44.954;10.068;2022-08-11T18:43:11;28.50;77.70
39881;DHT22;25554;44.954;10.068;2022-08-11T18:46:04;28.40;77.80
39881;DHT22;25554;44.954;10.068;2022-08-11T18:48:54;28.20;78.10
39881;DHT22;25554;44.954;10.068;2022-08-11T18:51:44;28.20;78.10
39881;DHT22;25554;44.954;10.068;2022-08-11T19:00:02;28.10;78.20
39881;DHT22;25554;44.954;10.068;2022-08-11T19:05:35;27.90;78.20
39881;DHT22;25554;44.954;10.068;2022-08-11T19:08:22;27.80;77.70
39881;DHT22;25554;44.954;10.068;2022-08-11T19:11:11;27.80;77.70
39881;DHT22;25554;44.954;10.068;2022-08-11T19:13:57;27.80;77.70
39881;DHT22;25554;44.954;10.068;2022-08-11T19:16:44;27.70;77.50
39881;DHT22;25554;44.954;10.068;2022-08-11T19:19:31;27.50;77.60
39881;DHT22;25554;44.954;10.068;2022-08-11T19:25:03;27.50;77.50
39881;DHT22;25554;44.954;10.068;2022-08-11T19:36:06;27.40;77.10
39881;DHT22;25554;44.954;10.068;2022-08-11T19:38:52;27.40;77.00
39881;DHT22;25554;44.954;10.068;2022-08-11T19:41:38;27.40;77.10
39881;DHT22;25554;44.954;10.068;2022-08-11T19:44:25;27.30;76.80
39881;DHT22;25554;44.954;10.068;2022-08-11T19:47:12;27.30;77.00
39881;DHT22;25554;44.954;10.068;2022-08-11T19:49:58;27.10;76.90
39881;DHT22;25554;44.954;10.068;2022-08-11T19:52:43;27.20;77.00
39881;DHT22;25554;44.954;10.068;2022-08-11T19:55:29;27.10;76.90
39881;DHT22;25554;44.954;10.068;2022-08-11T20:09:17;26.80;77.40
39881;DHT22;25554;44.954;10.068;2022-08-11T20:12:03;26.90;77.30
39881;DHT22;25554;44.954;10.068;2022-08-11T20:14:50;26.70;77.50
39881;DHT22;25554;44.954;10.068;2022-08-11T20:17:37;26.80;77.60
39881;DHT22;25554;44.954;10.068;2022-08-11T20:20:25;23.70;75.60
39881;DHT22;25554;44.954;10.068;2022-08-11T20:23:13;26.70;77.70
39881;DHT22;25554;44.954;10.068;2022-08-11T20:26:01;26.60;77.50
39881;DHT22;25554;44.954;10.068;2022-08-11T20:28:49;26.60;77.60
39881;DHT22;25554;44.954;10.068;2022-08-11T20:37:06;26.40;78.10
39881;DHT22;25554;44.954;10.068;2022-08-11T20:42:37;26.40;78.80
39881;DHT22;25554;44.954;10.068;2022-08-11T20:50:55;26.00;79.00
39881;DHT22;25554;44.954;10.068;2022-08-11T20:53:43;26.20;79.30
39881;DHT22;25554;44.954;10.068;2022-08-11T20:56:30;26.00;79.30
39881;DHT22;25554;44.954;10.068;2022-08-11T20:59:21;25.80;79.10
39881;DHT22;25554;44.954;10.068;2022-08-11T21:02:09;26.00;79.20
39881;DHT22;25554;44.954;10.068;2022-08-11T21:07:48;25.80;79.30
39881;DHT22;25554;44.954;10.068;2022-08-11T21:10:36;25.70;79.60
39881;DHT22;25554;44.954;10.068;2022-08-11T21:13:26;22.50;77.70
39881;DHT22;25554;44.954;10.068;2022-08-11T21:16:16;25.80;79.80
39881;DHT22;25554;44.954;10.068;2022-08-11T21:19:30;25.80;80.00
39881;DHT22;25554;44.954;10.068;2022-08-11T21:22:20;25.80;80.20
39881;DHT22;25554;44.954;10.068;2022-08-11T21:25:08;25.80;80.40
39881;DHT22;25554;44.954;10.068;2022-08-11T21:28:00;25.70;80.30
39881;DHT22;25554;44.954;10.068;2022-08-11T21:30:45;25.70;80.30
39881;DHT22;25554;44.954;10.068;2022-08-11T21:33:33;25.60;80.60
39881;DHT22;25554;44.954;10.068;2022-08-11T21:36:19;25.60;80.70
39881;DHT22;25554;44.954;10.068;2022-08-11T21:39:06;25.60;80.60
39881;DHT22;25554;44.954;10.068;2022-08-11T21:41:53;25.60;81.10
39881;DHT22;25554;44.954;10.068;2022-08-11T21:44:40;24.60;81.40
39881;DHT22;25554;44.954;10.068;2022-08-11T21:52:58;25.40;81.50
39881;DHT22;25554;44.954;10.068;2022-08-11T21:55:44;25.40;81.60
39881;DHT22;25554;44.954;10.068;2022-08-11T22:01:16;25.20;81.60
39881;DHT22;25554;44.954;10.068;2022-08-11T22:04:03;25.30;81.80
39881;DHT22;25554;44.954;10.068;2022-08-11T22:06:50;25.30;82.00
39881;DHT22;25554;44.954;10.068;2022-08-11T22:09:35;25.20;82.00
39881;DHT22;25554;44.954;10.068;2022-08-11T22:15:07;25.30;82.40
39881;DHT22;25554;44.954;10.068;2022-08-11T22:20:39;24.70;84.50
39881;DHT22;25554;44.954;10.068;2022-08-11T22:23:24;24.60;85.20
39881;DHT22;25554;44.954;10.068;2022-08-11T22:26:11;24.60;85.70
39881;DHT22;25554;44.954;10.068;2022-08-11T22:37:14;24.30;85.40
39881;DHT22;25554;44.954;10.068;2022-08-11T23:02:05;24.30;86.20
39881;DHT22;25554;44.954;10.068;2022-08-11T23:04:51;24.30;86.40
39881;DHT22;25554;44.954;10.068;2022-08-11T23:07:37;24.20;86.10
39881;DHT22;25554;44.954;10.068;2022-08-11T23:15:55;24.30;84.00
39881;DHT22;25554;44.954;10.068;2022-08-11T23:21:30;24.50;85.40
39881;DHT22;25554;44.954;10.068;2022-08-11T23:24:16;24.50;86.60
39881;DHT22;25554;44.954;10.068;2022-08-11T23:29:49;24.00;88.40
39881;DHT22;25554;44.954;10.068;2022-08-11T23:40:51;23.90;89.50
39881;DHT22;25554;44.954;10.068;2022-08-11T23:43:37;23.30;95.00
39881;DHT22;25554;44.954;10.068;2022-08-11T23:46:24;23.70;90.40
39881;DHT22;25554;44.954;10.068;2022-08-11T23:51:56;23.50;90.70
39881;DHT22;25554;44.954;10.068;2022-08-11T23:54:43;23.30;90.70
